createdAt,value
2018-11-28T00:01:43.786Z,3.95
2018-11-28T00:04:44.522Z,3.10
2018-11-28T00:07:46.734Z,2.83
2018-11-28T00:10:54.699Z,3.25
2018-11-28T00:13:55.434Z,3.20
2018-11-28T00:20:08.684Z,3.02
2018-11-28T00:23:09.675Z,2.22
2018-11-28T00:26:10.162Z,2.10
2018-11-28T00:29:10.645Z,2.17
2018-11-28T00:32:11.114Z,1.47
2018-11-28T00:35:07.854Z,3.85
2018-11-28T00:38:04.717Z,3.50
2018-11-28T00:41:05.136Z,2.77
2018-11-28T00:44:05.610Z,2.42
2018-11-28T00:47:06.346Z,2.10
2018-11-28T00:50:07.082Z,2.85
2018-11-28T00:53:07.563Z,4.42
2018-11-28T00:56:05.294Z,3.05
2018-11-28T00:59:40.012Z,2.77
2018-11-28T01:02:41.008Z,3.58
2018-11-28T01:05:43.017Z,2.92
2018-11-28T01:08:44.523Z,2.85
2018-11-28T01:11:45.001Z,3.00
2018-11-28T01:14:46.249Z,2.45
2018-11-28T01:17:47.243Z,2.10
2018-11-28T01:20:51.051Z,2.95
2018-11-28T01:23:51.530Z,2.12
2018-11-28T01:26:52.273Z,2.27
2018-11-28T01:29:53.001Z,3.37
2018-11-28T01:32:53.741Z,2.30
2018-11-28T01:35:58.056Z,2.77
2018-11-28T01:38:58.537Z,3.50
2018-11-28T01:42:00.302Z,3.00
2018-11-28T01:45:01.800Z,2.75
2018-11-28T01:48:02.537Z,2.80
2018-11-28T01:51:03.272Z,2.80
2018-11-28T01:54:04.775Z,2.20
2018-11-28T01:57:05.512Z,2.52
2018-11-28T02:00:07.786Z,2.20
2018-11-28T02:03:08.267Z,2.22
2018-11-28T02:06:09.515Z,2.12
2018-11-28T02:09:10.250Z,2.10
2018-11-28T02:12:10.737Z,2.15
2018-11-28T02:15:11.467Z,1.75
2018-11-28T02:18:11.944Z,1.90
2018-11-28T02:21:12.429Z,1.80
2018-11-28T02:24:13.430Z,1.85
2018-11-28T02:27:14.153Z,1.75
2018-11-28T02:30:14.891Z,1.60
2018-11-28T02:33:15.633Z,1.40
2018-11-28T02:36:19.178Z,1.55
2018-11-28T02:39:23.497Z,1.52
2018-11-28T02:42:24.238Z,1.47
2018-11-28T02:45:24.970Z,1.50
2018-11-28T02:48:25.447Z,1.90
2018-11-28T02:51:25.928Z,1.50
2018-11-28T02:54:27.175Z,1.30
2018-11-28T02:57:27.918Z,1.65
2018-11-28T03:00:28.647Z,1.90
2018-11-28T03:03:29.897Z,1.50
2018-11-28T03:06:30.378Z,1.62
2018-11-28T03:09:27.275Z,1.37
2018-11-28T03:12:28.778Z,1.47
2018-11-28T03:15:29.257Z,1.50
2018-11-28T03:18:29.744Z,1.25
2018-11-28T03:21:30.479Z,1.40
2018-11-28T03:24:30.964Z,1.40
2018-11-28T03:27:32.459Z,1.60
2018-11-28T03:30:33.706Z,1.30
2018-11-28T03:33:38.031Z,1.10
2018-11-28T03:36:38.766Z,1.10
2018-11-28T03:39:40.011Z,1.00
2018-11-28T03:42:41.001Z,1.12
2018-11-28T03:45:41.995Z,1.22
2018-11-28T03:48:45.808Z,1.27
2018-11-28T03:51:59.082Z,1.10
2018-11-28T03:55:00.584Z,1.00
2018-11-28T03:58:02.362Z,1.20
2018-11-28T04:01:03.336Z,1.12
2018-11-28T04:04:04.076Z,1.10
2018-11-28T04:07:05.837Z,0.95
2018-11-28T04:10:06.569Z,1.20
2018-11-28T04:13:07.304Z,1.30
2018-11-28T04:16:08.809Z,1.20
2018-11-28T04:19:09.297Z,0.95
2018-11-28T04:22:10.025Z,1.20
2018-11-28T04:25:10.505Z,1.52
2018-11-28T04:28:11.240Z,1.60
2018-11-28T04:31:11.719Z,1.70
2018-11-28T04:34:12.456Z,1.42
2018-11-28T04:37:13.451Z,1.40
2018-11-28T04:40:13.930Z,2.08
2018-11-28T04:43:15.176Z,1.55
2018-11-28T04:46:16.169Z,1.55
2018-11-28T04:49:16.904Z,2.08
2018-11-28T04:52:17.391Z,1.42
2018-11-28T04:55:17.890Z,1.17
2018-11-28T04:58:18.608Z,1.45
2018-11-28T05:01:19.087Z,1.22
2018-11-28T05:04:17.000Z,1.85
2018-11-28T05:07:29.001Z,1.55
2018-11-28T05:10:29.742Z,1.40
2018-11-28T05:13:30.727Z,1.95
2018-11-28T05:16:31.465Z,2.42
2018-11-28T05:19:31.947Z,1.72
2018-11-28T05:22:32.425Z,1.67
2018-11-28T05:25:34.190Z,3.00
2018-11-28T05:28:35.433Z,1.95
2018-11-28T05:31:36.425Z,1.90
2018-11-28T05:34:37.419Z,2.42
2018-11-28T05:37:38.665Z,1.90
2018-11-28T05:40:50.668Z,2.05
2018-11-28T05:43:51.402Z,2.47
2018-11-28T05:46:52.137Z,2.17
2018-11-28T05:49:52.872Z,2.10
2018-11-28T05:52:53.610Z,2.50
2018-11-28T05:55:50.671Z,2.30
2018-11-28T05:58:51.243Z,1.70
2018-11-28T06:01:53.010Z,1.62
2018-11-28T06:04:57.322Z,2.37
2018-11-28T06:07:58.058Z,1.75
2018-11-28T06:10:58.793Z,2.10
2018-11-28T06:14:00.299Z,1.95
2018-11-28T06:17:00.777Z,2.92
2018-11-28T06:20:01.514Z,2.42
2018-11-28T06:23:02.256Z,2.80
2018-11-28T06:26:03.754Z,1.70
2018-11-28T06:29:04.488Z,2.62
2018-11-28T06:32:04.970Z,2.37
2018-11-28T06:35:06.474Z,2.17
2018-11-28T06:38:07.465Z,2.15
2018-11-28T06:41:08.969Z,1.30
2018-11-28T06:44:09.729Z,2.22
2018-11-28T06:47:10.186Z,1.72
2018-11-28T06:50:07.053Z,2.52
2018-11-28T06:53:07.564Z,2.10
2018-11-28T06:56:08.298Z,1.87
2018-11-28T06:59:09.033Z,2.15
2018-11-28T07:02:09.510Z,2.27
2018-11-28T07:05:10.249Z,2.87
2018-11-28T07:08:10.986Z,2.37
2018-11-28T07:11:11.471Z,2.30
2018-11-28T07:14:12.202Z,2.37
2018-11-28T07:17:12.685Z,2.02
2018-11-28T07:20:14.441Z,2.37
2018-11-28T07:23:15.176Z,2.27
2018-11-28T07:26:13.353Z,1.90
2018-11-28T07:29:13.834Z,2.60
2018-11-28T07:32:14.324Z,2.15
2018-11-28T07:35:14.800Z,1.90
2018-11-28T07:38:15.530Z,2.20
2018-11-28T07:41:22.151Z,2.08
2018-11-28T07:44:22.896Z,1.87
2018-11-28T07:47:23.371Z,1.85
2018-11-28T07:50:23.852Z,1.95
2018-11-28T07:53:24.584Z,1.72
2018-11-28T07:56:25.069Z,2.10
2018-11-28T07:59:26.575Z,1.80
2018-11-28T08:02:27.818Z,1.98
2018-11-28T08:05:29.846Z,1.75
2018-11-28T08:08:31.087Z,1.80
2018-11-28T08:11:31.560Z,2.02
2018-11-28T08:14:32.807Z,1.85
2018-11-28T08:17:33.294Z,1.95
2018-11-28T08:20:34.283Z,1.82
2018-11-28T08:23:34.772Z,2.08
2018-11-28T08:26:35.505Z,2.75
2018-11-28T08:29:35.978Z,1.67
2018-11-28T08:32:36.713Z,1.70
2018-11-28T08:35:38.472Z,2.30
2018-11-28T08:38:38.952Z,2.08
2018-11-28T08:41:39.435Z,1.82
2018-11-28T08:44:39.925Z,1.65
2018-11-28T08:47:36.553Z,1.72
2018-11-28T08:50:47.786Z,2.02
2018-11-28T08:53:48.519Z,1.80
2018-11-28T08:56:49.001Z,1.55
2018-11-28T08:59:49.738Z,2.05
2018-11-28T09:02:50.216Z,1.52
2018-11-28T09:05:50.953Z,1.70
2018-11-28T09:08:51.946Z,1.80
2018-11-28T09:11:53.206Z,1.82
2018-11-28T09:14:54.184Z,1.60
2018-11-28T09:17:56.204Z,1.75
2018-11-28T09:20:56.937Z,1.80
2018-11-28T09:23:57.418Z,1.52
2018-11-28T09:26:57.897Z,1.55
2018-11-28T09:29:58.376Z,2.10
2018-11-28T09:32:58.862Z,1.92
2018-11-28T09:35:59.591Z,2.05
2018-11-28T09:39:00.078Z,1.42
2018-11-28T09:42:01.586Z,1.57
2018-11-28T09:45:03.595Z,1.80
2018-11-28T09:48:04.078Z,1.98
2018-11-28T09:51:04.809Z,1.98
2018-11-28T09:54:05.291Z,1.92
2018-11-28T09:57:05.768Z,1.65
2018-11-28T10:00:06.761Z,1.77
2018-11-28T10:03:15.690Z,2.60
2018-11-28T10:06:16.171Z,2.33
2018-11-28T10:09:12.814Z,2.42
2018-11-28T10:15:26.057Z,2.65
2018-11-28T10:18:26.795Z,1.75
2018-11-28T10:21:28.401Z,1.75
2018-11-28T10:24:29.032Z,2.20
2018-11-28T10:27:29.769Z,1.80
2018-11-28T10:30:26.411Z,2.62
2018-11-28T10:33:26.891Z,2.52
2018-11-28T10:36:27.634Z,2.40
2018-11-28T10:39:25.294Z,2.00
2018-11-28T10:42:25.771Z,3.02
2018-11-28T10:45:26.249Z,2.33
2018-11-28T10:48:26.730Z,2.80
2018-11-28T10:51:27.466Z,2.22
2018-11-28T10:54:27.948Z,3.08
2018-11-28T10:57:28.682Z,1.95
2018-11-28T11:00:29.159Z,1.80
2018-11-28T11:03:31.946Z,1.95
2018-11-28T11:06:34.989Z,2.08
2018-11-28T11:09:35.981Z,2.27
2018-11-28T11:12:38.762Z,1.65
2018-11-28T11:15:35.405Z,2.62
2018-11-28T11:18:36.907Z,1.75
2018-11-28T11:21:37.642Z,1.87
2018-11-28T11:24:30.699Z,2.05
2018-11-28T11:27:31.434Z,2.05
2018-11-28T11:30:31.931Z,3.45
2018-11-28T11:33:28.808Z,2.65
2018-11-28T11:36:29.591Z,2.30
2018-11-28T11:39:22.691Z,2.80
2018-11-28T11:42:23.345Z,1.85
2018-11-28T11:45:24.847Z,2.58
2018-11-28T11:48:25.584Z,1.87
2018-11-28T11:51:26.316Z,3.62
2018-11-28T11:54:27.049Z,2.67
2018-11-28T11:57:27.786Z,2.45
2018-11-28T12:00:29.038Z,2.77
2018-11-28T12:03:50.255Z,2.98
2018-11-28T12:06:50.984Z,3.42
2018-11-28T12:09:51.724Z,3.05
2018-11-28T12:12:53.738Z,3.20
2018-11-28T12:15:54.217Z,2.65
2018-11-28T12:18:55.100Z,2.25
2018-11-28T12:21:55.946Z,2.55
2018-11-28T12:24:56.684Z,2.95
2018-11-28T12:27:57.417Z,3.17
2018-11-28T12:30:57.897Z,3.15
2018-11-28T12:33:58.900Z,2.67
2018-11-28T12:36:59.625Z,3.02
2018-11-28T12:40:00.875Z,3.00
2018-11-28T12:43:01.609Z,3.40
2018-11-28T12:46:02.353Z,2.47
2018-11-28T12:49:02.834Z,2.90
2018-11-28T12:52:03.821Z,2.42
2018-11-28T12:55:08.140Z,2.22
2018-11-28T12:58:08.875Z,3.98
2018-11-28T13:01:09.353Z,2.87
2018-11-28T13:04:10.105Z,2.87
2018-11-28T13:07:11.082Z,2.95
2018-11-28T13:10:11.817Z,2.47
2018-11-28T13:13:12.811Z,2.35
2018-11-28T13:16:13.547Z,2.17
2018-11-28T13:19:14.538Z,2.40
2018-11-28T13:22:15.017Z,2.37
2018-11-28T13:25:15.753Z,3.00
2018-11-28T13:28:17.004Z,2.75
2018-11-28T13:31:17.483Z,2.37
2018-11-28T13:34:19.249Z,2.85
2018-11-28T13:37:20.233Z,2.42
2018-11-28T13:40:20.985Z,2.95
2018-11-28T13:43:21.704Z,2.45
2018-11-28T13:46:22.446Z,2.72
2018-11-28T13:49:22.965Z,3.47
2018-11-28T13:52:23.916Z,2.70
2018-11-28T13:55:41.809Z,2.92
2018-11-28T13:58:28.201Z,3.02
2018-11-28T14:01:29.201Z,2.20
2018-11-28T14:04:30.972Z,3.17
2018-11-28T14:07:31.690Z,2.37
2018-11-28T14:10:33.449Z,3.02
2018-11-28T14:16:51.817Z,3.02
2018-11-28T14:19:48.460Z,2.35
2018-11-28T14:22:48.938Z,3.70
2018-11-28T14:25:44.714Z,2.77
2018-11-28T14:28:46.057Z,2.70
2018-11-28T14:31:46.538Z,3.00
2018-11-28T14:34:47.020Z,2.58
2018-11-28T14:37:44.823Z,2.62
2018-11-28T14:40:56.683Z,2.85
2018-11-28T14:43:57.162Z,2.60
2018-11-28T14:46:57.912Z,3.10
2018-11-28T14:49:58.632Z,2.55
2018-11-28T14:52:59.370Z,1.98
2018-11-28T14:56:11.373Z,3.37
2018-11-28T14:59:12.111Z,3.08
2018-11-28T15:02:12.598Z,3.08
2018-11-28T15:05:13.076Z,3.42
2018-11-28T15:08:13.555Z,2.45
2018-11-28T15:11:32.460Z,3.00
2018-11-28T15:14:22.958Z,2.42
2018-11-28T15:17:23.433Z,2.75
2018-11-28T15:20:24.170Z,3.83
2018-11-28T15:23:24.905Z,3.10
2018-11-28T15:26:25.388Z,2.60
2018-11-28T15:29:39.176Z,2.27
2018-11-28T15:32:50.155Z,3.92
2018-11-28T15:35:50.636Z,2.22
2018-11-28T15:38:52.393Z,2.42
2018-11-28T15:41:53.133Z,3.52
2018-11-28T15:44:53.869Z,3.25
2018-11-28T15:48:04.842Z,3.27
2018-11-28T15:51:15.820Z,3.12
2018-11-28T15:54:16.560Z,2.92
2018-11-28T15:57:13.449Z,2.85
2018-11-28T16:00:14.447Z,2.67
2018-11-28T16:03:25.416Z,2.60
2018-11-28T16:06:36.410Z,3.20
2018-11-28T16:09:41.228Z,3.60
2018-11-28T16:12:41.962Z,3.45
2018-11-28T16:15:56.535Z,2.87
2018-11-28T16:19:08.010Z,2.65
2018-11-28T16:22:18.986Z,2.92
2018-11-28T16:25:19.725Z,2.52
2018-11-28T16:28:20.465Z,2.70
2018-11-28T16:31:23.498Z,2.65
2018-11-28T16:34:34.991Z,2.90
2018-11-28T16:37:46.223Z,2.47
2018-11-28T16:40:46.956Z,2.95
2018-11-28T16:43:49.224Z,2.20
2018-11-28T16:47:00.461Z,2.95
2018-11-28T16:50:01.453Z,3.02
2018-11-28T16:53:02.192Z,3.45
2018-11-28T16:56:14.700Z,2.50
2018-11-28T16:59:30.796Z,2.08
2018-11-28T17:02:28.994Z,2.60
2018-11-28T17:05:29.965Z,2.98
2018-11-28T17:08:33.520Z,2.22
2018-11-28T17:11:34.510Z,2.08
2018-11-28T17:14:36.020Z,2.70
2018-11-28T17:17:38.284Z,2.40
2018-11-28T17:20:44.649Z,2.58
2018-11-28T17:23:42.060Z,2.50
2018-11-28T17:26:56.111Z,2.50
2018-11-28T17:30:07.856Z,2.25
2018-11-28T17:33:11.401Z,2.98
2018-11-28T17:36:18.698Z,3.10
2018-11-28T17:39:30.031Z,2.58
2018-11-28T17:42:43.311Z,2.33
2018-11-28T17:45:55.054Z,3.42
2018-11-28T17:49:06.799Z,2.95
2018-11-28T17:52:08.828Z,2.85
2018-11-28T17:55:07.767Z,3.25
2018-11-28T17:58:10.814Z,3.33
2018-11-28T18:01:13.850Z,2.98
2018-11-28T18:04:15.596Z,2.85
2018-11-28T18:07:27.085Z,2.77
2018-11-28T18:10:38.315Z,3.00
2018-11-28T18:13:50.830Z,2.92
2018-11-28T18:17:02.061Z,3.50
2018-11-28T18:20:13.040Z,2.15
2018-11-28T18:23:14.798Z,3.00
2018-11-28T18:26:19.642Z,2.47
2018-11-28T18:29:31.162Z,2.25
2018-11-28T18:32:45.680Z,1.90
2018-11-28T18:35:48.464Z,2.47
2018-11-28T18:38:49.719Z,2.00
2018-11-28T18:41:39.184Z,2.22
2018-11-28T18:44:40.425Z,2.75
2018-11-28T18:47:41.424Z,2.67
2018-11-28T18:50:42.921Z,2.20
2018-11-28T18:53:49.392Z,2.27
2018-11-28T18:56:45.165Z,2.85
2018-11-28T19:00:43.246Z,3.40
2018-11-28T19:03:54.220Z,3.02
2018-11-28T19:07:05.463Z,2.47
2018-11-28T19:10:18.986Z,2.92
2018-11-28T19:13:23.306Z,2.42
2018-11-28T19:16:25.067Z,2.15
2018-11-28T19:19:26.063Z,2.10
2018-11-28T19:22:28.346Z,3.80
2018-11-28T19:25:29.331Z,2.27
2018-11-28T19:28:30.317Z,2.58
2018-11-28T19:31:31.307Z,2.90
2018-11-28T19:34:24.618Z,2.70
2018-11-28T19:37:29.723Z,3.20
2018-11-28T19:40:31.731Z,3.15
2018-11-28T19:43:40.276Z,2.20
2018-11-28T19:46:52.149Z,2.80
2018-11-28T19:49:56.233Z,2.90
2018-11-28T19:53:03.655Z,3.20
2018-11-28T19:56:08.455Z,2.65
2018-11-28T19:59:16.371Z,2.72
2018-11-28T20:02:31.935Z,2.67
2018-11-28T20:05:37.283Z,2.67
2018-11-28T20:08:43.388Z,2.50
2018-11-28T20:11:47.458Z,2.80
2018-11-28T20:15:01.030Z,2.50
2018-11-28T20:18:23.481Z,3.20
2018-11-28T20:21:22.607Z,2.87
2018-11-28T20:24:35.193Z,2.50
2018-11-28T20:27:46.683Z,2.95
2018-11-28T20:31:05.851Z,3.30
2018-11-28T20:34:20.665Z,2.12
2018-11-28T20:37:38.300Z,2.62
2018-11-28T20:40:59.514Z,2.10
2018-11-28T20:44:14.595Z,2.77
2018-11-28T20:47:20.703Z,3.25
2018-11-28T20:53:49.817Z,3.33
2018-11-28T20:56:55.937Z,3.27
2018-11-28T21:00:12.281Z,3.08
2018-11-28T21:03:32.733Z,2.98
2018-11-28T21:06:47.813Z,2.92
2018-11-28T21:10:05.434Z,3.22
2018-11-28T21:13:26.139Z,3.50
2018-11-28T21:16:38.659Z,4.20
2018-11-28T21:19:51.161Z,3.75
2018-11-28T21:23:12.638Z,3.20
2018-11-28T21:26:25.145Z,3.40
2018-11-28T21:29:37.916Z,4.15
2018-11-28T21:32:43.512Z,3.92
2018-11-28T21:35:50.652Z,3.98
2018-11-28T21:39:02.903Z,3.55
2018-11-28T21:45:37.659Z,4.20
2018-11-28T21:48:56.591Z,4.67
2018-11-28T21:52:09.083Z,3.90
2018-11-28T21:55:20.313Z,3.90
2018-11-28T21:58:32.823Z,4.45
2018-11-28T22:01:45.337Z,3.75
2018-11-28T22:04:47.869Z,5.45
2018-11-28T22:07:50.389Z,4.55
2018-11-28T22:11:02.397Z,4.80
2018-11-28T22:14:15.168Z,2.80
2018-11-28T22:17:17.945Z,3.22
2018-11-28T22:20:17.227Z,3.75
2018-11-28T22:23:28.883Z,3.30
2018-11-28T22:26:40.370Z,3.52
2018-11-28T22:29:53.132Z,3.08
2018-11-28T22:33:04.361Z,2.95
2018-11-28T22:36:15.337Z,2.65
2018-11-28T22:39:26.329Z,2.40
2018-11-28T22:42:37.546Z,2.45
2018-11-28T22:45:48.267Z,2.58
2018-11-28T22:49:03.343Z,2.20
2018-11-28T22:52:05.355Z,2.30
2018-11-28T22:55:06.090Z,2.55
2018-11-28T22:58:07.084Z,2.50
2018-11-28T23:01:09.609Z,1.87
2018-11-28T23:04:20.330Z,2.12
2018-11-28T23:07:31.051Z,2.37
2018-11-28T23:10:31.531Z,1.92
2018-11-28T23:13:32.265Z,2.30
2018-11-28T23:16:34.028Z,3.02
2018-11-28T23:19:35.533Z,3.20
2018-11-28T23:22:36.527Z,2.42
2018-11-28T23:25:41.868Z,2.75
2018-11-28T23:28:42.604Z,2.52
2018-11-28T23:31:53.368Z,2.22
2018-11-28T23:35:04.305Z,2.70
2018-11-28T23:38:09.132Z,2.55
2018-11-28T23:41:10.125Z,2.40
2018-11-28T23:44:21.105Z,2.55
2018-11-28T23:47:32.843Z,2.70
2018-11-28T23:50:29.490Z,2.30
2018-11-28T23:53:40.203Z,2.60
2018-11-28T23:56:43.756Z,2.72
2018-11-28T23:59:55.753Z,2.70
